createdAt,value
2023-04-18T00:00:39.098Z,9.65
2023-04-18T00:03:06.522Z,8.70
2023-04-18T00:05:33.523Z,9.23
2023-04-18T00:08:00.658Z,8.98
2023-04-18T00:10:27.530Z,13.45
2023-04-18T00:12:54.704Z,9.70
2023-04-18T00:15:21.560Z,8.45
2023-04-18T00:17:48.900Z,8.20
2023-04-18T00:20:15.852Z,9.23
2023-04-18T00:22:43.822Z,8.20
2023-04-18T00:25:11.218Z,8.15
2023-04-18T00:27:41.421Z,7.85
2023-04-18T00:30:09.180Z,7.07
2023-04-18T00:32:38.075Z,7.93
2023-04-18T00:35:05.851Z,7.22
2023-04-18T00:37:32.849Z,7.20
2023-04-18T00:39:59.743Z,8.10
2023-04-18T00:42:28.842Z,7.78
2023-04-18T00:44:55.963Z,7.38
2023-04-18T00:47:22.947Z,7.70
2023-04-18T00:49:49.955Z,8.73
2023-04-18T00:52:18.457Z,7.47
2023-04-18T00:54:47.396Z,7.32
2023-04-18T00:57:14.574Z,7.83
2023-04-18T00:59:42.388Z,8.50
2023-04-18T01:02:09.300Z,7.97
2023-04-18T01:04:37.339Z,7.78
2023-04-18T01:07:04.928Z,9.40
2023-04-18T01:09:32.004Z,8.52
2023-04-18T01:11:58.860Z,8.00
2023-04-18T01:14:25.789Z,7.53
2023-04-18T01:16:53.296Z,7.68
2023-04-18T01:19:20.213Z,7.32
2023-04-18T01:21:47.263Z,7.68
2023-04-18T01:24:16.057Z,7.35
2023-04-18T01:26:44.892Z,7.23
2023-04-18T01:29:12.385Z,7.25
2023-04-18T01:31:40.971Z,7.43
2023-04-18T01:34:08.438Z,6.95
2023-04-18T01:36:36.582Z,7.65
2023-04-18T01:39:03.655Z,7.40
2023-04-18T01:41:32.752Z,7.25
2023-04-18T01:44:00.353Z,7.60
2023-04-18T01:46:28.583Z,7.60
2023-04-18T01:48:56.199Z,7.90
2023-04-18T01:51:23.222Z,8.10
2023-04-18T01:53:50.359Z,8.55
2023-04-18T01:56:17.321Z,10.10
2023-04-18T01:58:44.242Z,10.23
2023-04-18T02:01:13.055Z,7.07
2023-04-18T02:03:40.379Z,7.93
2023-04-18T02:06:07.882Z,6.45
2023-04-18T02:08:35.956Z,6.68
2023-04-18T02:11:05.583Z,7.22
2023-04-18T02:13:32.890Z,10.57
2023-04-18T02:15:59.944Z,7.10
2023-04-18T02:21:15.915Z,8.07
2023-04-18T02:23:42.817Z,7.82
2023-04-18T02:26:09.838Z,8.00
2023-04-18T02:28:39.128Z,8.70
2023-04-18T02:31:07.276Z,7.90
2023-04-18T02:36:05.793Z,6.82
2023-04-18T02:38:33.003Z,7.25
2023-04-18T02:40:59.967Z,6.93
2023-04-18T02:43:27.330Z,6.82
2023-04-18T02:45:54.290Z,7.22
2023-04-18T02:48:21.964Z,6.45
2023-04-18T02:50:48.873Z,7.25
2023-04-18T02:53:17.033Z,6.50
2023-04-18T02:55:52.160Z,6.65
2023-04-18T02:58:21.340Z,6.32
2023-04-18T03:03:38.957Z,6.65
2023-04-18T03:06:25.415Z,7.03
2023-04-18T03:08:54.524Z,7.20
2023-04-18T03:11:22.419Z,6.90
2023-04-18T03:13:49.862Z,7.40
2023-04-18T03:16:17.684Z,6.88
2023-04-18T03:18:44.832Z,9.05
2023-04-18T03:21:12.284Z,7.57
2023-04-18T03:23:39.569Z,7.43
2023-04-18T03:26:08.123Z,6.85
2023-04-18T03:28:37.783Z,7.07
2023-04-18T03:31:05.416Z,7.00
2023-04-18T03:33:35.762Z,6.68
2023-04-18T03:36:09.113Z,7.13
2023-04-18T03:38:37.847Z,7.22
2023-04-18T03:41:04.852Z,7.60
2023-04-18T03:46:02.033Z,7.45
2023-04-18T03:48:30.009Z,9.57
2023-04-18T03:51:01.271Z,7.13
2023-04-18T03:53:28.482Z,11.40
2023-04-18T03:55:56.578Z,8.23
2023-04-18T03:58:31.466Z,7.47
2023-04-18T04:01:01.025Z,7.35
2023-04-18T04:03:28.103Z,6.45
2023-04-18T04:05:56.582Z,5.93
2023-04-18T04:08:23.847Z,6.35
2023-04-18T04:10:51.119Z,7.15
2023-04-18T04:13:18.042Z,6.70
2023-04-18T04:15:45.250Z,6.65
2023-04-18T04:18:12.108Z,8.80
2023-04-18T04:20:43.918Z,7.30
2023-04-18T04:23:14.488Z,8.15
2023-04-18T04:25:46.440Z,7.95
2023-04-18T04:28:31.612Z,7.60
2023-04-18T04:31:03.392Z,11.02
2023-04-18T04:33:33.235Z,11.50
2023-04-18T04:36:03.659Z,9.05
2023-04-18T04:38:33.467Z,8.48
2023-04-18T04:41:00.495Z,8.77
2023-04-18T04:43:28.854Z,9.07
2023-04-18T04:45:57.823Z,10.25
2023-04-18T04:48:25.403Z,9.45
2023-04-18T04:50:56.568Z,14.90
2023-04-18T04:53:25.563Z,10.10
2023-04-18T04:55:53.105Z,9.40
2023-04-18T04:58:20.263Z,8.85
2023-04-18T05:01:09.232Z,8.52
2023-04-18T05:03:37.444Z,8.00
2023-04-18T05:06:04.973Z,7.03
2023-04-18T05:08:31.906Z,7.18
2023-04-18T05:10:58.998Z,7.43
2023-04-18T05:13:25.981Z,6.75
2023-04-18T05:15:53.004Z,8.88
2023-04-18T05:18:20.813Z,7.50
2023-04-18T05:20:47.753Z,7.68
2023-04-18T05:23:14.644Z,9.40
2023-04-18T05:25:42.000Z,8.60
2023-04-18T05:28:09.075Z,8.77
2023-04-18T05:30:36.154Z,8.25
2023-04-18T05:33:03.589Z,8.95
2023-04-18T05:35:31.129Z,8.25
2023-04-18T05:37:58.605Z,9.13
2023-04-18T05:40:27.391Z,8.85
2023-04-18T05:42:54.218Z,9.77
2023-04-18T05:45:21.131Z,12.98
2023-04-18T05:47:48.214Z,8.82
2023-04-18T05:50:15.159Z,9.80
2023-04-18T05:52:42.011Z,13.90
2023-04-18T05:55:09.422Z,11.93
2023-04-18T05:57:36.294Z,8.95
2023-04-18T06:00:07.858Z,9.73
2023-04-18T06:02:39.861Z,8.88
2023-04-18T06:05:07.794Z,11.48
2023-04-18T06:07:35.277Z,8.95
2023-04-18T06:10:02.512Z,14.55
2023-04-18T06:12:29.631Z,8.35
2023-04-18T06:14:56.750Z,13.43
2023-04-18T06:17:23.723Z,10.40
2023-04-18T06:19:50.696Z,7.80
2023-04-18T06:22:17.725Z,7.78
2023-04-18T06:24:45.024Z,17.77
2023-04-18T06:27:24.206Z,19.27
2023-04-18T06:29:59.770Z,8.55
2023-04-18T06:32:27.066Z,9.30
2023-04-18T06:34:54.017Z,12.55
2023-04-18T06:37:21.224Z,8.38
2023-04-18T06:39:48.129Z,8.05
2023-04-18T06:42:15.026Z,9.98
2023-04-18T06:44:44.932Z,10.07
2023-04-18T06:47:12.181Z,8.82
2023-04-18T06:49:39.164Z,9.05
2023-04-18T06:52:06.453Z,7.80
2023-04-18T06:54:33.465Z,9.88
2023-04-18T06:57:03.534Z,8.25
2023-04-18T06:59:30.847Z,10.27
2023-04-18T07:01:57.809Z,10.38
2023-04-18T07:04:24.926Z,7.97
2023-04-18T07:06:52.647Z,8.85
2023-04-18T07:09:20.209Z,8.32
2023-04-18T07:11:47.179Z,7.03
2023-04-18T07:14:14.432Z,7.47
2023-04-18T07:16:41.820Z,7.43
2023-04-18T07:19:08.837Z,10.80
2023-04-18T07:21:37.772Z,8.02
2023-04-18T07:24:05.398Z,6.87
2023-04-18T07:26:33.004Z,7.57
2023-04-18T07:29:00.214Z,9.30
2023-04-18T07:31:28.660Z,7.68
2023-04-18T07:33:56.179Z,7.25
2023-04-18T07:36:23.298Z,9.27
2023-04-18T07:38:51.763Z,8.18
2023-04-18T07:41:18.787Z,6.90
2023-04-18T07:43:45.837Z,7.18
2023-04-18T07:46:12.958Z,9.43
2023-04-18T07:48:39.857Z,7.97
2023-04-18T07:51:06.897Z,8.05
2023-04-18T07:53:33.886Z,8.65
2023-04-18T07:56:00.863Z,6.05
2023-04-18T07:58:27.880Z,6.57
2023-04-18T08:00:55.025Z,6.22
2023-04-18T08:03:22.293Z,5.55
2023-04-18T08:05:50.169Z,4.82
2023-04-18T08:08:17.048Z,5.13
2023-04-18T08:10:44.042Z,5.65
2023-04-18T08:13:13.205Z,5.10
2023-04-18T08:15:41.240Z,5.15
2023-04-18T08:18:08.216Z,4.78
2023-04-18T08:20:37.275Z,4.75
2023-04-18T08:23:07.965Z,4.90
2023-04-18T08:25:36.616Z,4.80
2023-04-18T08:28:04.255Z,4.88
2023-04-18T08:30:31.682Z,5.38
2023-04-18T08:33:01.827Z,5.63
2023-04-18T08:35:28.845Z,5.15
2023-04-18T08:37:55.859Z,5.43
2023-04-18T08:40:22.904Z,5.07
2023-04-18T08:42:52.007Z,4.97
2023-04-18T08:45:20.909Z,5.03
2023-04-18T08:47:47.858Z,4.73
2023-04-18T08:50:14.887Z,5.93
2023-04-18T08:52:47.421Z,5.57
2023-04-18T08:55:14.579Z,5.30
2023-04-18T08:57:41.498Z,5.13
2023-04-18T09:00:11.853Z,4.97
2023-04-18T09:02:44.863Z,4.80
2023-04-18T09:05:15.011Z,12.05
2023-04-18T09:07:43.082Z,6.22
2023-04-18T09:10:10.448Z,4.70
2023-04-18T09:12:50.551Z,4.18
2023-04-18T09:15:20.866Z,4.25
2023-04-18T09:17:50.962Z,4.57
2023-04-18T09:20:34.837Z,4.75
2023-04-18T09:23:14.692Z,5.30
2023-04-18T09:25:44.389Z,5.88
2023-04-18T09:28:29.226Z,3.50
2023-04-18T09:31:09.611Z,7.32
2023-04-18T09:33:37.174Z,3.95
2023-04-18T09:36:27.411Z,4.50
2023-04-18T09:38:57.059Z,8.95
2023-04-18T09:44:09.707Z,1.50
2023-04-18T09:46:40.778Z,3.28
2023-04-18T09:49:09.671Z,4.65
2023-04-18T09:51:40.397Z,3.45
2023-04-18T09:54:10.862Z,5.13
2023-04-18T09:56:43.954Z,3.22
2023-04-18T09:59:12.426Z,1.95
2023-04-18T10:01:41.227Z,3.63
2023-04-18T10:04:09.819Z,1.80
2023-04-18T10:06:39.801Z,1.60
2023-04-18T10:09:09.587Z,1.50
2023-04-18T10:14:06.994Z,1.35
2023-04-18T10:16:36.306Z,1.98
2023-04-18T10:19:25.906Z,1.38
2023-04-18T10:22:01.056Z,3.10
2023-04-18T10:24:52.896Z,1.90
2023-04-18T10:27:49.149Z,2.83
2023-04-18T10:30:16.813Z,1.88
2023-04-18T10:32:47.235Z,1.48
2023-04-18T10:35:14.369Z,2.45
2023-04-18T10:37:59.831Z,1.30
2023-04-18T10:40:34.888Z,2.22
2023-04-18T10:43:02.252Z,1.20
2023-04-18T10:45:32.648Z,5.28
2023-04-18T10:48:21.751Z,2.78
2023-04-18T10:51:34.155Z,1.42
2023-04-18T10:54:02.248Z,1.45
2023-04-18T10:56:29.314Z,1.63
2023-04-18T10:59:01.316Z,3.22
2023-04-18T11:01:33.235Z,1.60
2023-04-18T11:04:00.980Z,3.70
2023-04-18T11:06:28.705Z,9.90
2023-04-18T11:09:13.520Z,5.47
2023-04-18T11:11:41.694Z,4.47
2023-04-18T11:14:08.900Z,1.40
2023-04-18T11:16:36.566Z,13.60
2023-04-18T11:19:28.665Z,1.70
2023-04-18T11:22:02.012Z,1.77
2023-04-18T11:24:30.295Z,3.03
2023-04-18T11:26:57.830Z,2.88
2023-04-18T11:29:25.509Z,2.33
2023-04-18T11:31:58.286Z,1.67
2023-04-18T11:34:33.182Z,1.30
2023-04-18T11:37:00.368Z,1.35
2023-04-18T11:39:27.695Z,1.50
2023-04-18T11:41:56.485Z,1.60
2023-04-18T11:44:25.204Z,1.33
2023-04-18T11:46:52.842Z,2.15
2023-04-18T11:49:25.994Z,1.75
2023-04-18T11:51:53.594Z,4.40
2023-04-18T11:54:43.603Z,13.88
2023-04-18T11:57:28.520Z,10.60
2023-04-18T12:00:00.800Z,8.50
2023-04-18T12:02:40.188Z,7.97
2023-04-18T12:05:07.882Z,7.90
2023-04-18T12:07:44.092Z,3.65
2023-04-18T12:10:20.519Z,4.53
2023-04-18T12:12:52.029Z,4.53
2023-04-18T12:15:19.780Z,4.30
2023-04-18T12:17:54.133Z,5.72
2023-04-18T12:20:24.848Z,6.45
2023-04-18T12:22:54.237Z,4.05
2023-04-18T12:25:26.256Z,4.70
2023-04-18T12:27:55.988Z,3.70
2023-04-18T12:30:29.780Z,4.00
2023-04-18T15:24:24.464Z,2.00
2023-04-18T15:32:14.438Z,2.25
2023-04-18T15:34:41.408Z,2.10
2023-04-18T15:37:08.352Z,3.03
2023-04-18T15:39:35.576Z,2.00
2023-04-18T15:42:02.842Z,3.05
2023-04-18T15:44:30.713Z,2.70
2023-04-18T15:46:58.216Z,4.13
2023-04-18T15:49:25.116Z,3.10
2023-04-18T15:51:52.165Z,3.30
2023-04-18T15:54:19.126Z,2.78
2023-04-18T15:56:46.035Z,3.33
2023-04-18T15:59:13.807Z,3.55
2023-04-18T16:01:40.864Z,3.58
2023-04-18T16:04:08.069Z,3.70
2023-04-18T16:06:35.016Z,3.40
2023-04-18T16:09:01.909Z,3.97
2023-04-18T16:11:29.067Z,3.42
2023-04-18T16:13:56.216Z,3.70
2023-04-18T16:16:23.208Z,3.20
2023-04-18T16:18:50.145Z,3.40
2023-04-18T16:21:17.060Z,3.55
2023-04-18T16:23:44.000Z,3.10
2023-04-18T16:26:10.885Z,3.28
2023-04-18T16:28:37.898Z,2.88
2023-04-18T16:31:06.725Z,4.15
2023-04-18T16:33:33.766Z,2.63
2023-04-18T16:36:04.555Z,2.75
2023-04-18T16:38:31.859Z,2.72
2023-04-18T16:41:00.641Z,3.00
2023-04-18T16:43:28.433Z,2.60
2023-04-18T16:46:00.369Z,3.08
2023-04-18T16:48:28.906Z,3.35
2023-04-18T16:50:56.238Z,2.30
2023-04-18T16:53:23.757Z,2.20
2023-04-18T16:55:50.817Z,2.53
2023-04-18T16:58:17.668Z,5.07
2023-04-18T17:00:44.773Z,2.63
2023-04-18T17:03:11.860Z,2.63
2023-04-18T17:05:39.338Z,2.63
2023-04-18T17:08:09.265Z,3.03
2023-04-18T17:10:36.180Z,2.50
2023-04-18T17:13:03.712Z,2.42
2023-04-18T17:15:30.881Z,2.70
2023-04-18T17:18:00.185Z,3.03
2023-04-18T17:20:28.220Z,2.97
2023-04-18T17:22:55.601Z,3.47
2023-04-18T17:25:22.443Z,4.80
2023-04-18T17:27:49.429Z,7.55
2023-04-18T17:30:16.410Z,7.95
2023-04-18T17:32:46.010Z,5.63
2023-04-18T17:37:42.792Z,3.70
2023-04-18T17:40:11.634Z,5.47
2023-04-18T17:42:38.643Z,4.57
2023-04-18T17:45:07.616Z,3.28
2023-04-18T17:47:36.363Z,3.60
2023-04-18T17:50:07.251Z,3.80
2023-04-18T17:52:34.098Z,4.07
2023-04-18T17:55:04.124Z,4.22
2023-04-18T17:57:33.486Z,3.95
2023-04-18T18:00:00.352Z,4.78
2023-04-18T18:02:30.096Z,4.07
2023-04-18T18:07:24.424Z,3.65
2023-04-18T18:09:51.276Z,2.92
2023-04-18T18:12:18.094Z,3.13
2023-04-18T18:14:44.954Z,3.53
2023-04-18T18:17:11.834Z,4.85
2023-04-18T18:19:38.865Z,4.93
2023-04-18T18:22:05.691Z,3.58
2023-04-18T18:24:32.594Z,2.88
2023-04-18T18:26:59.717Z,16.13
2023-04-18T18:29:26.497Z,43.30
2023-04-18T18:31:53.382Z,22.88
2023-04-18T18:34:21.588Z,7.07
2023-04-18T18:36:48.528Z,4.15
2023-04-18T18:39:16.606Z,4.22
2023-04-18T18:41:43.810Z,2.97
2023-04-18T18:44:11.726Z,2.88
2023-04-18T18:46:38.689Z,3.13
2023-04-18T18:49:10.770Z,3.30
2023-04-18T18:51:37.687Z,4.90
2023-04-18T18:54:04.557Z,3.65
2023-04-18T18:56:31.402Z,3.75
2023-04-18T18:58:58.256Z,4.38
2023-04-18T19:01:25.155Z,4.22
2023-04-18T19:03:52.296Z,4.85
2023-04-18T19:06:19.312Z,4.57
2023-04-18T19:08:46.102Z,5.15
2023-04-18T19:11:13.069Z,4.82
2023-04-18T19:13:39.949Z,4.15
2023-04-18T19:16:06.781Z,4.38
2023-04-18T19:18:33.832Z,4.95
2023-04-18T19:21:00.799Z,4.05
2023-04-18T19:23:27.811Z,4.40
2023-04-18T19:25:54.886Z,3.88
2023-04-18T19:28:22.860Z,4.25
2023-04-18T19:30:49.962Z,4.15
2023-04-18T19:33:17.367Z,4.22
2023-04-18T19:35:44.226Z,3.90
2023-04-18T19:38:11.139Z,3.53
2023-04-18T19:40:38.120Z,3.75
2023-04-18T19:43:04.952Z,3.55
2023-04-18T19:45:31.893Z,3.90
2023-04-18T19:47:58.930Z,3.80
2023-04-18T19:50:25.897Z,4.00
2023-04-18T19:52:52.766Z,4.18
2023-04-18T19:55:19.664Z,4.45
2023-04-18T19:57:47.526Z,5.35
2023-04-18T20:00:15.165Z,5.13
2023-04-18T20:02:42.568Z,6.07
2023-04-18T20:05:10.186Z,6.45
2023-04-18T20:07:37.260Z,5.88
2023-04-18T20:10:04.743Z,5.95
2023-04-18T20:12:31.768Z,7.25
2023-04-18T20:14:58.908Z,5.65
2023-04-18T20:17:26.216Z,5.53
2023-04-18T20:19:53.508Z,5.72
2023-04-18T20:22:20.392Z,5.95
2023-04-18T20:24:48.714Z,6.38
2023-04-18T20:27:15.602Z,5.45
2023-04-18T20:29:42.549Z,6.45
2023-04-18T20:32:11.788Z,6.10
2023-04-18T20:34:38.767Z,6.93
2023-04-18T20:37:09.919Z,5.10
2023-04-18T20:40:03.177Z,6.32
2023-04-18T20:42:30.182Z,6.72
2023-04-18T20:44:58.763Z,6.88
2023-04-18T20:47:26.281Z,7.32
2023-04-18T20:49:53.118Z,6.25
2023-04-18T20:52:19.950Z,7.28
2023-04-18T20:54:46.818Z,6.28
2023-04-18T20:57:13.665Z,5.78
2023-04-18T20:59:40.446Z,5.18
2023-04-18T21:02:08.096Z,5.28
2023-04-18T21:04:35.499Z,5.53
2023-04-18T21:07:02.447Z,15.27
2023-04-18T21:09:31.155Z,14.48
2023-04-18T21:11:58.467Z,10.60
2023-04-18T21:14:25.218Z,8.80
2023-04-18T21:16:52.114Z,9.25
2023-04-18T21:19:18.946Z,8.60
2023-04-18T21:21:45.866Z,8.60
2023-04-18T21:24:12.779Z,8.93
2023-04-18T21:26:39.765Z,8.05
2023-04-18T21:29:06.704Z,6.30
2023-04-18T21:31:35.042Z,5.80
2023-04-18T21:34:04.506Z,7.82
2023-04-18T21:36:32.285Z,10.20
2023-04-18T21:39:01.261Z,7.47
2023-04-18T21:41:28.443Z,5.73
2023-04-18T21:43:55.446Z,5.97
2023-04-18T21:46:23.740Z,5.55
2023-04-18T21:48:51.051Z,6.60
2023-04-18T21:51:18.225Z,7.00
2023-04-18T21:53:45.434Z,6.82
2023-04-18T21:56:12.406Z,7.05
2023-04-18T21:58:39.340Z,6.72
2023-04-18T22:01:06.417Z,8.48
2023-04-18T22:03:34.152Z,9.30
2023-04-18T22:06:01.680Z,9.38
2023-04-18T22:08:29.479Z,8.25
2023-04-18T22:10:58.257Z,7.65
2023-04-18T22:13:30.160Z,12.20
2023-04-18T22:15:58.388Z,8.95
2023-04-18T22:18:25.412Z,7.90
2023-04-18T22:20:53.770Z,9.25
2023-04-18T22:23:20.789Z,8.70
2023-04-18T22:25:48.239Z,8.02
2023-04-18T22:28:15.218Z,9.52
2023-04-18T22:30:42.066Z,5.97
2023-04-18T22:33:08.952Z,5.35
2023-04-18T22:35:35.930Z,4.43
2023-04-18T22:38:02.894Z,5.13
2023-04-18T22:40:29.752Z,4.65
2023-04-18T22:42:56.665Z,4.97
2023-04-18T22:45:23.474Z,4.75
2023-04-18T22:47:50.467Z,4.70
2023-04-18T22:50:17.470Z,4.95
2023-04-18T22:52:44.435Z,4.80
2023-04-18T22:55:11.382Z,3.90
2023-04-18T22:57:38.583Z,5.03
2023-04-18T23:00:06.789Z,4.80
2023-04-18T23:02:33.836Z,4.43
2023-04-18T23:05:02.441Z,5.25
2023-04-18T23:07:29.446Z,4.78
2023-04-18T23:09:56.288Z,4.85
2023-04-18T23:12:23.293Z,5.90
2023-04-18T23:14:50.236Z,5.35
2023-04-18T23:17:17.138Z,5.07
2023-04-18T23:19:45.183Z,5.13
2023-04-18T23:22:12.042Z,5.50
2023-04-18T23:24:38.928Z,5.43
2023-04-18T23:27:06.032Z,5.15
2023-04-18T23:29:37.870Z,4.30
2023-04-18T23:32:06.310Z,5.10
2023-04-18T23:34:33.311Z,5.03
2023-04-18T23:37:00.831Z,4.90
2023-04-18T23:39:27.760Z,5.20
2023-04-18T23:41:54.794Z,5.00
2023-04-18T23:44:21.987Z,5.15
2023-04-18T23:46:49.223Z,4.50
2023-04-18T23:49:16.477Z,5.57
2023-04-18T23:51:43.275Z,4.93
2023-04-18T23:54:10.360Z,5.32
2023-04-18T23:56:37.188Z,5.05
2023-04-18T23:59:04.092Z,5.15
